createdAt,value
2017-10-09T00:00:01.534Z,25.10
2017-10-09T00:02:30.923Z,25.70
2017-10-09T00:05:00.129Z,26.60
2017-10-09T00:07:29.626Z,25.70
2017-10-09T00:09:59.986Z,24.70
2017-10-09T00:12:29.436Z,24.70
2017-10-09T00:14:59.158Z,24.60
2017-10-09T00:17:28.673Z,24.80
2017-10-09T00:19:58.232Z,25.80
2017-10-09T00:22:27.649Z,25.90
2017-10-09T00:24:57.073Z,26.90
2017-10-09T00:27:26.731Z,28.00
2017-10-09T00:30:05.610Z,25.80
2017-10-09T00:32:35.335Z,26.40
2017-10-09T00:35:04.276Z,26.50
2017-10-09T00:37:33.461Z,29.00
2017-10-09T00:40:02.634Z,27.60
2017-10-09T00:42:32.163Z,26.70
2017-10-09T00:45:01.554Z,27.10
2017-10-09T00:47:31.102Z,27.60
2017-10-09T00:50:00.685Z,26.40
2017-10-09T00:52:30.796Z,26.80
2017-10-09T00:55:00.164Z,26.70
2017-10-09T00:57:29.602Z,28.30
2017-10-09T00:59:59.701Z,27.60
2017-10-09T01:02:28.939Z,29.70
2017-10-09T01:04:59.243Z,32.30
2017-10-09T01:07:28.495Z,32.20
2017-10-09T01:09:57.278Z,34.00
2017-10-09T01:12:26.830Z,32.60
2017-10-09T01:14:55.629Z,36.00
2017-10-09T01:17:24.404Z,36.10
2017-10-09T01:19:53.254Z,39.20
2017-10-09T01:22:22.216Z,39.70
2017-10-09T01:24:51.793Z,40.50
2017-10-09T01:27:22.586Z,41.00
2017-10-09T01:29:52.236Z,41.00
2017-10-09T01:32:21.506Z,40.90
2017-10-09T01:34:50.717Z,40.80
2017-10-09T01:37:20.680Z,42.40
2017-10-09T01:39:49.765Z,44.10
2017-10-09T01:42:20.645Z,43.00
2017-10-09T01:44:50.029Z,42.90
2017-10-09T01:47:20.344Z,45.20
2017-10-09T01:49:50.345Z,46.00
2017-10-09T01:52:19.785Z,46.00
2017-10-09T01:54:49.136Z,46.10
2017-10-09T01:57:19.382Z,47.20
2017-10-09T01:59:48.851Z,46.80
2017-10-09T02:02:19.204Z,48.00
2017-10-09T02:04:48.367Z,48.40
2017-10-09T02:07:17.594Z,48.60
2017-10-09T02:09:47.115Z,49.40
2017-10-09T02:12:16.499Z,50.00
2017-10-09T02:14:47.455Z,50.90
2017-10-09T02:17:16.800Z,50.50
2017-10-09T02:19:47.238Z,50.80
2017-10-09T02:22:17.693Z,50.60
2017-10-09T02:24:48.556Z,50.80
2017-10-09T02:27:17.985Z,50.80
2017-10-09T02:29:47.898Z,51.40
2017-10-09T02:32:18.289Z,52.40
2017-10-09T02:34:47.927Z,52.20
2017-10-09T02:37:17.220Z,52.60
2017-10-09T02:39:46.744Z,53.80
2017-10-09T02:42:16.569Z,53.60
2017-10-09T02:44:45.715Z,53.60
2017-10-09T02:47:15.330Z,53.80
2017-10-09T02:49:45.424Z,55.40
2017-10-09T02:52:14.696Z,55.30
2017-10-09T02:54:44.086Z,55.70
2017-10-09T02:57:13.616Z,55.90
2017-10-09T02:59:42.983Z,56.10
2017-10-09T03:02:13.367Z,55.80
2017-10-09T03:04:43.839Z,56.50
2017-10-09T03:07:13.580Z,56.50
2017-10-09T03:09:43.052Z,56.90
2017-10-09T03:12:12.290Z,57.40
2017-10-09T03:14:42.026Z,58.50
2017-10-09T03:17:11.691Z,59.00
2017-10-09T03:19:41.287Z,59.10
2017-10-09T03:22:11.696Z,59.00
2017-10-09T03:24:41.142Z,59.80
2017-10-09T03:27:12.251Z,59.40
2017-10-09T03:29:45.682Z,59.70
2017-10-09T03:32:15.323Z,60.20
2017-10-09T03:34:44.653Z,60.80
2017-10-09T03:37:15.324Z,61.10
2017-10-09T03:39:45.862Z,61.00
2017-10-09T03:42:15.574Z,61.40
2017-10-09T03:44:45.156Z,61.60
2017-10-09T03:47:14.741Z,62.10
2017-10-09T03:49:44.231Z,62.40
2017-10-09T03:52:14.274Z,63.20
2017-10-09T03:54:43.865Z,62.90
2017-10-09T03:57:13.943Z,63.40
2017-10-09T03:59:43.479Z,63.40
2017-10-09T04:02:12.517Z,63.60
2017-10-09T04:04:41.751Z,63.90
2017-10-09T04:07:12.713Z,62.90
2017-10-09T04:09:42.790Z,63.80
2017-10-09T04:12:12.342Z,63.80
2017-10-09T04:14:42.383Z,63.10
2017-10-09T04:17:12.103Z,63.10
2017-10-09T04:19:41.490Z,63.10
2017-10-09T04:22:10.880Z,62.90
2017-10-09T04:24:40.488Z,62.60
2017-10-09T04:27:09.946Z,61.30
2017-10-09T04:29:39.267Z,62.10
2017-10-09T04:32:07.931Z,62.10
2017-10-09T04:34:37.322Z,62.50
2017-10-09T04:37:06.463Z,62.20
2017-10-09T04:39:35.589Z,62.50
2017-10-09T04:42:05.794Z,62.80
2017-10-09T04:44:35.123Z,62.70
2017-10-09T04:47:04.322Z,62.70
2017-10-09T04:49:33.662Z,62.80
2017-10-09T04:52:02.971Z,62.10
2017-10-09T04:54:32.152Z,62.40
2017-10-09T04:57:01.674Z,62.40
2017-10-09T04:59:30.996Z,62.60
2017-10-09T05:02:00.200Z,62.60
2017-10-09T05:04:29.242Z,63.20
2017-10-09T05:06:58.304Z,62.90
2017-10-09T05:09:29.008Z,63.00
2017-10-09T05:11:58.156Z,63.20
2017-10-09T05:14:27.534Z,63.00
2017-10-09T05:16:57.665Z,63.50
2017-10-09T05:19:26.991Z,64.30
2017-10-09T05:21:56.268Z,63.70
2017-10-09T05:24:25.627Z,64.90
2017-10-09T05:26:55.797Z,65.40
2017-10-09T05:29:24.994Z,65.30
2017-10-09T05:31:54.313Z,65.40
2017-10-09T05:34:23.708Z,65.40
2017-10-09T05:36:52.902Z,65.70
2017-10-09T05:39:22.528Z,66.00
2017-10-09T05:41:51.704Z,66.40
2017-10-09T05:44:21.198Z,66.80
2017-10-09T05:46:50.440Z,67.60
2017-10-09T05:49:20.429Z,68.20
2017-10-09T05:51:50.055Z,68.60
2017-10-09T05:54:19.511Z,68.40
2017-10-09T05:56:49.481Z,67.50
2017-10-09T05:59:18.625Z,67.50
2017-10-09T06:01:49.060Z,67.20
2017-10-09T06:04:18.310Z,66.90
2017-10-09T06:06:47.802Z,66.60
2017-10-09T06:09:17.542Z,66.50
2017-10-09T06:11:48.350Z,66.40
2017-10-09T06:14:17.703Z,66.90
2017-10-09T06:16:47.338Z,66.90
2017-10-09T06:19:16.622Z,66.70
2017-10-09T06:21:46.121Z,66.80
2017-10-09T06:24:15.290Z,67.00
2017-10-09T06:26:44.578Z,66.80
2017-10-09T06:29:13.898Z,66.60
2017-10-09T06:31:43.193Z,66.80
2017-10-09T06:34:12.388Z,66.60
2017-10-09T06:36:41.964Z,66.70
2017-10-09T06:39:11.410Z,67.40
2017-10-09T06:41:40.803Z,67.30
2017-10-09T06:44:10.225Z,68.00
2017-10-09T06:46:39.547Z,69.00
2017-10-09T06:49:09.241Z,69.10
2017-10-09T06:51:38.509Z,69.40
2017-10-09T06:54:07.784Z,69.40
2017-10-09T06:56:37.328Z,70.40
2017-10-09T06:59:07.118Z,71.10
2017-10-09T07:01:43.641Z,72.10
2017-10-09T07:04:13.071Z,73.10
2017-10-09T07:06:42.655Z,74.40
2017-10-09T07:09:12.193Z,75.30
2017-10-09T07:11:41.758Z,75.60
2017-10-09T07:14:12.270Z,75.60
2017-10-09T07:16:41.838Z,75.30
2017-10-09T07:19:11.405Z,75.10
2017-10-09T07:21:40.811Z,75.10
2017-10-09T07:24:10.378Z,74.80
2017-10-09T07:26:39.649Z,74.70
2017-10-09T07:29:08.951Z,74.80
2017-10-09T07:31:38.208Z,75.00
2017-10-09T07:34:08.137Z,75.10
2017-10-09T07:36:37.694Z,75.10
2017-10-09T07:39:13.792Z,75.40
2017-10-09T07:41:43.513Z,75.90
2017-10-09T07:44:13.265Z,77.00
2017-10-09T07:46:42.668Z,77.10
2017-10-09T07:49:12.083Z,77.00
2017-10-09T07:51:41.364Z,76.80
2017-10-09T07:54:10.669Z,76.80
2017-10-09T07:56:40.152Z,76.80
2017-10-09T07:59:09.741Z,76.70
2017-10-09T08:01:39.045Z,76.80
2017-10-09T08:04:08.537Z,77.20
2017-10-09T08:06:37.942Z,77.20
2017-10-09T08:09:07.652Z,77.50
2017-10-09T08:11:37.162Z,77.50
2017-10-09T08:14:06.193Z,77.40
2017-10-09T08:16:36.106Z,77.40
2017-10-09T08:19:05.669Z,77.20
2017-10-09T08:21:35.715Z,76.30
2017-10-09T08:24:05.114Z,76.20
2017-10-09T08:26:34.740Z,76.90
2017-10-09T08:29:03.991Z,76.80
2017-10-09T08:31:34.196Z,76.80
2017-10-09T08:34:03.774Z,76.80
2017-10-09T08:36:33.158Z,76.20
2017-10-09T08:39:02.385Z,75.40
2017-10-09T08:41:31.895Z,74.90
2017-10-09T08:44:01.904Z,75.30
2017-10-09T08:46:31.204Z,75.50
2017-10-09T08:49:00.648Z,75.20
2017-10-09T08:51:30.185Z,75.30
2017-10-09T08:53:59.508Z,75.70
2017-10-09T08:56:28.979Z,75.70
2017-10-09T08:58:58.574Z,75.80
2017-10-09T09:01:28.076Z,75.90
2017-10-09T09:03:57.920Z,75.80
2017-10-09T09:06:27.521Z,75.70
2017-10-09T09:08:56.983Z,75.40
2017-10-09T09:11:26.384Z,74.80
2017-10-09T09:13:55.859Z,75.00
2017-10-09T09:16:25.519Z,74.80
2017-10-09T09:18:56.172Z,74.70
2017-10-09T09:21:26.651Z,74.30
2017-10-09T09:23:55.922Z,74.40
2017-10-09T09:26:25.802Z,74.30
2017-10-09T09:28:55.147Z,74.60
2017-10-09T09:31:25.157Z,74.80
2017-10-09T09:33:54.339Z,74.90
2017-10-09T09:36:23.962Z,75.00
2017-10-09T09:38:53.138Z,75.40
2017-10-09T09:41:22.393Z,74.80
2017-10-09T09:43:51.707Z,75.10
2017-10-09T09:46:20.981Z,75.20
2017-10-09T09:48:50.131Z,75.90
2017-10-09T09:51:19.481Z,75.90
2017-10-09T09:53:48.976Z,75.70
2017-10-09T09:56:18.483Z,75.90
2017-10-09T09:58:47.641Z,75.50
2017-10-09T10:01:16.946Z,75.60
2017-10-09T10:03:46.188Z,75.80
2017-10-09T10:06:16.317Z,76.00
2017-10-09T10:08:45.619Z,76.00
2017-10-09T10:11:14.761Z,76.00
2017-10-09T10:13:44.783Z,75.80
2017-10-09T10:16:14.754Z,76.20
2017-10-09T10:18:43.931Z,76.20
2017-10-09T10:21:14.149Z,76.40
2017-10-09T10:23:43.461Z,76.70
2017-10-09T10:26:12.624Z,76.40
2017-10-09T10:28:41.861Z,76.40
2017-10-09T10:31:11.298Z,76.50
2017-10-09T10:33:40.832Z,76.20
2017-10-09T10:36:10.062Z,76.10
2017-10-09T10:38:39.109Z,75.70
2017-10-09T10:41:09.158Z,75.30
2017-10-09T10:43:38.738Z,75.30
2017-10-09T10:46:08.175Z,75.10
2017-10-09T10:48:37.236Z,75.40
2017-10-09T10:51:07.376Z,74.90
2017-10-09T10:53:36.467Z,75.00
2017-10-09T10:56:05.909Z,74.70
2017-10-09T10:58:35.405Z,74.80
2017-10-09T11:01:04.831Z,74.40
2017-10-09T11:03:33.969Z,74.20
2017-10-09T11:06:03.365Z,74.30
2017-10-09T11:08:32.741Z,74.20
2017-10-09T11:11:02.011Z,74.20
2017-10-09T11:13:31.451Z,74.00
2017-10-09T11:16:00.657Z,73.60
2017-10-09T11:18:30.146Z,73.40
2017-10-09T11:20:59.389Z,73.30
2017-10-09T11:23:29.710Z,73.00
2017-10-09T11:25:59.183Z,73.60
2017-10-09T11:28:28.345Z,73.90
2017-10-09T11:30:57.694Z,74.10
2017-10-09T11:33:27.808Z,73.60
2017-10-09T11:35:57.173Z,73.40
2017-10-09T11:38:26.840Z,73.80
2017-10-09T11:40:56.701Z,73.90
2017-10-09T11:43:26.345Z,74.00
2017-10-09T11:45:56.765Z,74.80
2017-10-09T11:48:26.330Z,74.90
2017-10-09T11:50:55.878Z,75.40
2017-10-09T11:53:25.143Z,76.40
2017-10-09T11:55:54.197Z,76.90
2017-10-09T11:58:23.368Z,77.60
2017-10-09T12:00:52.931Z,77.70
2017-10-09T12:03:22.502Z,78.20
2017-10-09T12:05:51.903Z,77.60
2017-10-09T12:08:22.015Z,77.80
2017-10-09T12:10:51.329Z,77.50
2017-10-09T12:13:20.852Z,77.40
2017-10-09T12:15:50.172Z,77.30
2017-10-09T12:18:19.577Z,78.80
2017-10-09T12:20:49.105Z,79.50
2017-10-09T12:23:18.960Z,80.00
2017-10-09T12:25:49.526Z,79.70
2017-10-09T12:28:19.069Z,79.60
2017-10-09T12:30:48.112Z,79.80
2017-10-09T12:33:17.147Z,80.00
2017-10-09T12:35:46.617Z,80.20
2017-10-09T12:38:15.873Z,80.00
2017-10-09T12:40:46.235Z,80.00
2017-10-09T12:43:15.888Z,80.00
2017-10-09T12:45:45.492Z,80.40
2017-10-09T12:48:14.997Z,80.50
2017-10-09T12:50:44.059Z,80.80
2017-10-09T12:53:13.362Z,81.30
2017-10-09T12:55:42.793Z,80.60
2017-10-09T12:58:12.012Z,80.90
2017-10-09T13:00:41.392Z,81.40
2017-10-09T13:03:10.683Z,81.30
2017-10-09T13:05:39.857Z,81.60
2017-10-09T13:08:09.438Z,81.70
2017-10-09T13:10:38.795Z,81.50
2017-10-09T13:13:08.038Z,81.00
2017-10-09T13:15:38.168Z,80.60
2017-10-09T13:18:07.879Z,80.70
2017-10-09T13:20:37.522Z,80.40
2017-10-09T13:23:07.104Z,80.40
2017-10-09T13:25:36.368Z,81.20
2017-10-09T13:28:07.391Z,81.20
2017-10-09T13:30:36.787Z,81.20
2017-10-09T13:33:06.852Z,80.70
2017-10-09T13:35:36.272Z,80.90
2017-10-09T13:38:05.710Z,79.90
2017-10-09T13:40:34.765Z,80.50
2017-10-09T13:43:04.045Z,80.40
2017-10-09T13:45:33.366Z,80.40
2017-10-09T13:48:02.682Z,80.80
2017-10-09T13:50:32.145Z,80.90
2017-10-09T13:53:01.552Z,80.50
2017-10-09T13:55:31.069Z,79.50
2017-10-09T13:58:00.243Z,79.10
2017-10-09T14:00:30.492Z,78.90
2017-10-09T14:02:59.869Z,78.90
2017-10-09T14:05:30.724Z,78.00
2017-10-09T14:08:00.057Z,77.90
2017-10-09T14:10:29.724Z,77.30
2017-10-09T14:12:59.446Z,76.90
2017-10-09T14:15:28.904Z,76.70
2017-10-09T14:17:58.397Z,77.00
2017-10-09T14:20:27.905Z,76.20
2017-10-09T14:22:57.091Z,75.70
2017-10-09T14:25:26.405Z,75.80
2017-10-09T14:27:55.929Z,75.60
2017-10-09T14:30:26.438Z,75.20
2017-10-09T14:40:24.421Z,74.00
2017-10-09T14:42:54.087Z,74.00
2017-10-09T14:45:23.840Z,74.20
2017-10-09T14:47:53.523Z,74.20
2017-10-09T14:50:23.218Z,74.00
2017-10-09T14:52:52.646Z,74.00
2017-10-09T14:55:21.509Z,74.20
2017-10-09T14:57:50.948Z,73.80
2017-10-09T15:00:20.671Z,73.70
2017-10-09T15:02:49.923Z,73.40
2017-10-09T15:05:19.403Z,71.30
2017-10-09T15:07:49.057Z,71.80
2017-10-09T15:10:18.697Z,71.80
2017-10-09T15:12:48.131Z,71.70
2017-10-09T15:15:17.351Z,71.70
2017-10-09T15:17:46.636Z,71.60
2017-10-09T15:20:16.133Z,71.60
2017-10-09T15:22:45.286Z,72.30
2017-10-09T15:25:14.659Z,71.80
2017-10-09T15:27:43.832Z,72.20
2017-10-09T15:30:13.074Z,72.40
2017-10-09T15:32:44.208Z,71.90
2017-10-09T15:35:13.809Z,71.90
2017-10-09T15:37:43.878Z,72.00
2017-10-09T15:40:13.201Z,72.00
2017-10-09T15:42:42.869Z,72.70
2017-10-09T15:45:12.127Z,72.10
2017-10-09T15:47:41.333Z,72.10
2017-10-09T15:50:10.691Z,70.40
2017-10-09T15:52:39.924Z,70.30
2017-10-09T15:55:09.337Z,68.80
2017-10-09T15:57:38.884Z,69.30
2017-10-09T16:00:08.116Z,68.30
2017-10-09T16:02:37.214Z,67.00
2017-10-09T16:05:06.852Z,68.00
2017-10-09T16:07:35.902Z,66.50
2017-10-09T16:10:05.027Z,63.60
2017-10-09T16:12:34.403Z,63.20
2017-10-09T16:15:04.077Z,63.10
2017-10-09T16:17:33.303Z,62.00
2017-10-09T16:20:02.576Z,62.80
2017-10-09T16:22:31.860Z,61.90
2017-10-09T16:25:01.225Z,60.20
2017-10-09T16:27:30.793Z,60.20
2017-10-09T16:30:00.375Z,59.40
2017-10-09T16:32:30.165Z,58.50
2017-10-09T16:35:00.766Z,57.10
2017-10-09T16:37:30.091Z,55.10
2017-10-09T16:39:59.432Z,51.80
2017-10-09T16:42:29.783Z,49.70
2017-10-09T16:44:59.114Z,49.50
2017-10-09T16:47:28.296Z,48.20
2017-10-09T16:49:57.780Z,48.90
2017-10-09T16:52:26.893Z,49.20
2017-10-09T16:54:56.286Z,47.90
2017-10-09T16:57:25.564Z,48.00
2017-10-09T16:59:55.560Z,45.50
2017-10-09T17:02:24.971Z,45.50
2017-10-09T17:04:54.321Z,44.30
2017-10-09T17:07:23.836Z,44.20
2017-10-09T17:09:53.153Z,42.90
2017-10-09T17:12:22.453Z,41.90
2017-10-09T17:14:51.700Z,44.00
2017-10-09T17:17:22.018Z,44.90
2017-10-09T17:19:51.274Z,44.70
2017-10-09T17:22:20.709Z,44.70
2017-10-09T17:24:51.033Z,46.50
2017-10-09T17:27:20.451Z,46.10
2017-10-09T17:29:49.869Z,47.20
2017-10-09T17:32:19.344Z,47.80
2017-10-09T17:34:48.539Z,45.50
2017-10-09T17:37:19.347Z,48.40
2017-10-09T17:39:48.735Z,47.70
2017-10-09T17:42:18.434Z,48.30
2017-10-09T17:44:47.915Z,47.70
2017-10-09T17:47:17.158Z,46.80
2017-10-09T17:49:46.468Z,49.50
2017-10-09T17:52:15.519Z,50.70
2017-10-09T17:54:44.924Z,51.20
2017-10-09T17:57:14.239Z,51.60
2017-10-09T17:59:43.519Z,51.50
2017-10-09T18:02:12.857Z,51.60
2017-10-09T18:04:42.071Z,49.80
2017-10-09T18:07:11.347Z,50.20
2017-10-09T18:09:40.882Z,49.80
2017-10-09T18:12:09.947Z,50.60
2017-10-09T18:14:39.233Z,49.90
2017-10-09T18:17:08.599Z,50.70
2017-10-09T18:19:38.082Z,51.40
2017-10-09T18:22:07.227Z,51.50
2017-10-09T18:24:36.758Z,51.40
2017-10-09T18:27:06.073Z,51.30
2017-10-09T18:29:36.062Z,52.30
2017-10-09T18:32:05.658Z,51.60
2017-10-09T18:34:35.027Z,50.60
2017-10-09T18:37:04.077Z,50.50
2017-10-09T18:39:33.900Z,51.90
2017-10-09T18:42:03.175Z,49.40
2017-10-09T18:44:33.184Z,50.20
2017-10-09T18:47:02.640Z,49.00
2017-10-09T18:49:32.013Z,47.50
2017-10-09T18:52:01.415Z,46.90
2017-10-09T18:54:30.497Z,47.30
2017-10-09T18:56:59.903Z,47.30
2017-10-09T18:59:29.220Z,46.70
2017-10-09T19:01:58.621Z,46.70
2017-10-09T19:04:27.830Z,47.10
2017-10-09T19:06:57.343Z,46.50
2017-10-09T19:09:26.947Z,46.40
2017-10-09T19:11:56.901Z,45.70
2017-10-09T19:14:26.564Z,47.20
2017-10-09T19:16:55.843Z,44.90
2017-10-09T19:19:25.285Z,47.10
2017-10-09T19:21:54.538Z,47.80
2017-10-09T19:24:23.626Z,44.80
2017-10-09T19:26:53.005Z,46.30
2017-10-09T19:29:22.866Z,44.90
2017-10-09T19:31:51.920Z,44.90
2017-10-09T19:34:21.111Z,43.80
2017-10-09T19:36:50.112Z,45.30
2017-10-09T19:39:20.230Z,43.80
2017-10-09T19:41:50.826Z,41.80
2017-10-09T19:44:20.207Z,41.60
2017-10-09T19:46:49.516Z,41.40
2017-10-09T19:49:18.795Z,40.20
2017-10-09T19:51:48.333Z,38.30
2017-10-09T19:54:17.390Z,34.90
2017-10-09T19:56:46.919Z,36.30
2017-10-09T19:59:16.422Z,36.50
2017-10-09T20:01:45.931Z,38.10
2017-10-09T20:04:15.185Z,36.20
2017-10-09T20:06:44.533Z,36.30
2017-10-09T20:09:13.937Z,36.10
2017-10-09T20:11:43.829Z,36.00
2017-10-09T20:14:13.017Z,36.50
2017-10-09T20:16:42.345Z,33.80
2017-10-09T20:19:11.970Z,34.20
2017-10-09T20:21:41.100Z,34.90
2017-10-09T20:24:10.394Z,34.30
2017-10-09T20:26:39.889Z,33.60
2017-10-09T20:29:09.082Z,34.50
2017-10-09T20:31:38.134Z,32.90
2017-10-09T20:34:07.536Z,34.00
2017-10-09T20:36:38.716Z,32.90
2017-10-09T20:39:07.953Z,32.60
2017-10-09T20:41:37.392Z,33.90
2017-10-09T20:44:08.370Z,33.70
2017-10-09T20:46:37.715Z,34.30
2017-10-09T20:49:06.467Z,34.00
2017-10-09T20:51:35.945Z,33.00
2017-10-09T20:54:05.166Z,34.10
2017-10-09T20:56:34.144Z,33.60
2017-10-09T20:59:03.582Z,33.40
2017-10-09T21:01:32.999Z,37.20
2017-10-09T21:04:02.130Z,32.90
2017-10-09T21:06:31.656Z,34.60
2017-10-09T21:09:01.125Z,34.30
2017-10-09T21:11:30.188Z,32.10
2017-10-09T21:14:00.559Z,32.20
2017-10-09T21:16:29.901Z,32.10
2017-10-09T21:18:59.204Z,33.50
2017-10-09T21:21:28.734Z,32.20
2017-10-09T21:23:58.226Z,32.00
2017-10-09T21:26:28.952Z,32.50
2017-10-09T21:28:58.277Z,32.20
2017-10-09T21:31:27.588Z,33.10
2017-10-09T21:33:56.872Z,33.40
2017-10-09T21:36:26.065Z,33.80
2017-10-09T21:38:56.313Z,33.00
2017-10-09T21:41:25.660Z,33.00
2017-10-09T21:43:54.858Z,32.60
2017-10-09T21:46:24.960Z,32.50
2017-10-09T21:48:54.276Z,30.70
2017-10-09T21:51:23.860Z,30.40
2017-10-09T21:53:53.219Z,30.40
2017-10-09T21:56:23.277Z,30.20
2017-10-09T21:58:52.566Z,30.10
2017-10-09T22:01:21.950Z,30.90
2017-10-09T22:03:51.101Z,30.80
2017-10-09T22:06:20.237Z,29.50
2017-10-09T22:08:49.372Z,31.30
2017-10-09T22:11:18.741Z,30.20
2017-10-09T22:13:48.234Z,29.10
2017-10-09T22:16:18.293Z,29.00
2017-10-09T22:18:47.609Z,29.00
2017-10-09T22:21:16.919Z,28.60
2017-10-09T22:23:47.032Z,28.00
2017-10-09T22:26:16.372Z,27.90
2017-10-09T22:28:46.294Z,28.60
2017-10-09T22:31:16.697Z,28.90
2017-10-09T22:33:45.934Z,28.90
2017-10-09T22:36:15.051Z,27.50
2017-10-09T22:38:45.136Z,28.00
2017-10-09T22:41:14.441Z,28.70
2017-10-09T22:43:43.696Z,27.90
2017-10-09T22:46:12.933Z,28.50
2017-10-09T22:48:42.901Z,29.00
2017-10-09T22:51:12.322Z,27.30
2017-10-09T22:53:41.619Z,27.20
2017-10-09T22:56:11.011Z,29.10
2017-10-09T22:58:40.190Z,28.60
2017-10-09T23:01:09.887Z,29.10
2017-10-09T23:03:39.068Z,28.60
2017-10-09T23:06:09.146Z,27.70
2017-10-09T23:08:38.934Z,27.70
2017-10-09T23:11:08.156Z,27.70
2017-10-09T23:13:38.065Z,27.00
2017-10-09T23:16:07.333Z,26.90
2017-10-09T23:18:36.777Z,26.30
2017-10-09T23:21:05.470Z,26.70
2017-10-09T23:23:34.191Z,26.00
2017-10-09T23:26:03.039Z,25.80
2017-10-09T23:28:32.281Z,26.70
2017-10-09T23:31:01.538Z,26.10
2017-10-09T23:33:30.559Z,26.30
2017-10-09T23:35:59.950Z,26.30
2017-10-09T23:38:29.095Z,27.00
2017-10-09T23:40:58.157Z,27.30
2017-10-09T23:43:28.397Z,26.80
2017-10-09T23:45:58.536Z,25.40
2017-10-09T23:48:27.878Z,25.40
2017-10-09T23:50:58.421Z,25.70
2017-10-09T23:53:27.441Z,26.20
2017-10-09T23:55:57.557Z,25.70
2017-10-09T23:58:27.693Z,25.80
